sensor_id;sensor_type;location;lat;lon;timestamp;P1;durP1;ratioP1;P2;durP2;ratioP2
17510;SDS011;8873;48.818;9.422;2024-03-23T00:52:08;14.23;;;5.93;;
17510;SDS011;8873;48.818;9.422;2024-03-23T00:54:34;10.15;;;5.47;;
17510;SDS011;8873;48.818;9.422;2024-03-23T00:57:00;10.50;;;6.18;;
17510;SDS011;8873;48.818;9.422;2024-03-23T00:59:27;11.40;;;6.20;;
17510;SDS011;8873;48.818;9.422;2024-03-23T01:01:57;12.57;;;6.43;;
17510;SDS011;8873;48.818;9.422;2024-03-23T01:04:30;9.77;;;5.70;;
17510;SDS011;8873;48.818;9.422;2024-03-23T01:06:59;9.07;;;5.55;;
17510;SDS011;8873;48.818;9.422;2024-03-23T01:26:15;11.30;;;5.68;;
17510;SDS011;8873;48.818;9.422;2024-03-23T01:28:41;7.95;;;5.53;;
17510;SDS011;8873;48.818;9.422;2024-03-23T01:31:08;10.95;;;5.80;;
17510;SDS011;8873;48.818;9.422;2024-03-23T01:44:04;7.15;;;5.13;;
17510;SDS011;8873;48.818;9.422;2024-03-23T01:46:31;10.18;;;5.32;;
17510;SDS011;8873;48.818;9.422;2024-03-23T01:48:58;9.02;;;5.82;;
17510;SDS011;8873;48.818;9.422;2024-03-23T01:51:24;13.82;;;5.38;;
17510;SDS011;8873;48.818;9.422;2024-03-23T01:53:51;11.63;;;5.85;;
17510;SDS011;8873;48.818;9.422;2024-03-23T01:56:19;8.48;;;5.45;;
17510;SDS011;8873;48.818;9.422;2024-03-23T01:58:45;11.65;;;5.60;;
17510;SDS011;8873;48.818;9.422;2024-03-23T02:04:41;9.20;;;5.65;;
17510;SDS011;8873;48.818;9.422;2024-03-23T02:07:07;7.70;;;5.07;;
17510;SDS011;8873;48.818;9.422;2024-03-23T02:09:33;10.23;;;5.72;;
17510;SDS011;8873;48.818;9.422;2024-03-23T02:12:01;7.60;;;5.60;;
17510;SDS011;8873;48.818;9.422;2024-03-23T02:14:27;10.02;;;6.15;;
17510;SDS011;8873;48.818;9.422;2024-03-23T02:16:54;9.77;;;5.68;;
17510;SDS011;8873;48.818;9.422;2024-03-23T02:19:19;10.23;;;5.45;;
17510;SDS011;8873;48.818;9.422;2024-03-23T02:21:48;10.82;;;5.57;;
17510;SDS011;8873;48.818;9.422;2024-03-23T02:37:43;11.70;;;5.88;;
17510;SDS011;8873;48.818;9.422;2024-03-23T02:43:44;12.75;;;6.03;;
17510;SDS011;8873;48.818;9.422;2024-03-23T02:46:36;10.70;;;5.40;;
17510;SDS011;8873;48.818;9.422;2024-03-23T02:49:07;11.55;;;5.35;;
17510;SDS011;8873;48.818;9.422;2024-03-23T02:55:31;7.57;;;4.70;;
17510;SDS011;8873;48.818;9.422;2024-03-23T03:12:14;14.85;;;5.78;;
17510;SDS011;8873;48.818;9.422;2024-03-23T03:14:41;8.35;;;5.22;;
17510;SDS011;8873;48.818;9.422;2024-03-23T03:17:06;8.23;;;4.88;;
17510;SDS011;8873;48.818;9.422;2024-03-23T03:19:33;8.70;;;5.22;;
17510;SDS011;8873;48.818;9.422;2024-03-23T05:26:08;10.90;;;5.60;;
17510;SDS011;8873;48.818;9.422;2024-03-23T05:28:36;9.15;;;5.55;;
17510;SDS011;8873;48.818;9.422;2024-03-23T05:31:02;11.40;;;5.72;;
17510;SDS011;8873;48.818;9.422;2024-03-23T05:33:28;12.13;;;7.15;;
17510;SDS011;8873;48.818;9.422;2024-03-23T05:35:56;10.95;;;7.00;;
17510;SDS011;8873;48.818;9.422;2024-03-23T05:38:22;13.13;;;7.88;;
17510;SDS011;8873;48.818;9.422;2024-03-23T05:40:52;18.17;;;7.05;;
17510;SDS011;8873;48.818;9.422;2024-03-23T05:43:20;16.00;;;6.97;;
17510;SDS011;8873;48.818;9.422;2024-03-23T05:45:52;17.35;;;7.75;;
17510;SDS011;8873;48.818;9.422;2024-03-23T05:48:19;19.05;;;8.40;;
17510;SDS011;8873;48.818;9.422;2024-03-23T05:50:45;17.92;;;8.20;;
17510;SDS011;8873;48.818;9.422;2024-03-23T05:53:11;21.05;;;8.73;;
17510;SDS011;8873;48.818;9.422;2024-03-23T05:55:38;20.75;;;8.93;;
17510;SDS011;8873;48.818;9.422;2024-03-23T05:58:04;21.85;;;10.13;;
17510;SDS011;8873;48.818;9.422;2024-03-23T06:00:32;18.30;;;8.48;;
17510;SDS011;8873;48.818;9.422;2024-03-23T06:02:58;21.30;;;8.60;;
17510;SDS011;8873;48.818;9.422;2024-03-23T06:05:24;17.10;;;7.13;;
17510;SDS011;8873;48.818;9.422;2024-03-23T06:07:51;12.48;;;5.97;;
17510;SDS011;8873;48.818;9.422;2024-03-23T06:10:17;11.23;;;5.57;;
17510;SDS011;8873;48.818;9.422;2024-03-23T06:12:45;7.90;;;4.18;;
17510;SDS011;8873;48.818;9.422;2024-03-23T06:15:11;7.40;;;4.13;;
17510;SDS011;8873;48.818;9.422;2024-03-23T06:17:39;10.07;;;4.75;;
17510;SDS011;8873;48.818;9.422;2024-03-23T06:20:05;9.10;;;4.38;;
17510;SDS011;8873;48.818;9.422;2024-03-23T06:22:32;9.52;;;4.50;;
17510;SDS011;8873;48.818;9.422;2024-03-23T06:24:59;7.53;;;4.43;;
17510;SDS011;8873;48.818;9.422;2024-03-23T06:27:25;6.90;;;3.60;;
17510;SDS011;8873;48.818;9.422;2024-03-23T06:29:51;8.00;;;3.42;;
17510;SDS011;8873;48.818;9.422;2024-03-23T06:32:18;7.63;;;3.20;;
17510;SDS011;8873;48.818;9.422;2024-03-23T06:34:48;5.22;;;3.28;;
17510;SDS011;8873;48.818;9.422;2024-03-23T06:37:15;5.28;;;3.15;;
17510;SDS011;8873;48.818;9.422;2024-03-23T06:39:40;6.70;;;3.75;;
17510;SDS011;8873;48.818;9.422;2024-03-23T06:42:07;5.88;;;3.03;;
17510;SDS011;8873;48.818;9.422;2024-03-23T06:44:33;6.88;;;2.97;;
17510;SDS011;8873;48.818;9.422;2024-03-23T06:47:00;6.05;;;2.58;;
17510;SDS011;8873;48.818;9.422;2024-03-23T06:49:26;3.38;;;2.28;;
17510;SDS011;8873;48.818;9.422;2024-03-23T06:51:54;2.45;;;1.90;;
17510;SDS011;8873;48.818;9.422;2024-03-23T06:54:49;4.13;;;2.30;;
17510;SDS011;8873;48.818;9.422;2024-03-23T06:57:15;2.65;;;2.13;;
17510;SDS011;8873;48.818;9.422;2024-03-23T06:59:41;2.40;;;1.98;;
17510;SDS011;8873;48.818;9.422;2024-03-23T07:02:08;1.95;;;1.60;;
17510;SDS011;8873;48.818;9.422;2024-03-23T07:04:34;1.83;;;1.70;;
17510;SDS011;8873;48.818;9.422;2024-03-23T07:07:02;1.90;;;1.80;;
17510;SDS011;8873;48.818;9.422;2024-03-23T07:09:31;1.60;;;1.50;;
17510;SDS011;8873;48.818;9.422;2024-03-23T07:11:58;1.65;;;1.55;;
17510;SDS011;8873;48.818;9.422;2024-03-23T07:14:24;1.92;;;1.60;;
17510;SDS011;8873;48.818;9.422;2024-03-23T07:16:52;1.20;;;1.20;;
17510;SDS011;8873;48.818;9.422;2024-03-23T07:19:20;1.23;;;0.93;;
17510;SDS011;8873;48.818;9.422;2024-03-23T07:21:48;1.35;;;1.35;;
17510;SDS011;8873;48.818;9.422;2024-03-23T07:24:15;1.10;;;1.10;;
17510;SDS011;8873;48.818;9.422;2024-03-23T07:26:42;1.27;;;1.27;;
17510;SDS011;8873;48.818;9.422;2024-03-23T07:29:12;1.20;;;1.20;;
17510;SDS011;8873;48.818;9.422;2024-03-23T07:31:46;3.50;;;1.20;;
17510;SDS011;8873;48.818;9.422;2024-03-23T07:34:14;1.10;;;1.10;;
17510;SDS011;8873;48.818;9.422;2024-03-23T07:36:41;1.25;;;1.25;;
17510;SDS011;8873;48.818;9.422;2024-03-23T07:39:07;1.20;;;1.10;;
17510;SDS011;8873;48.818;9.422;2024-03-23T07:41:38;1.30;;;1.30;;
17510;SDS011;8873;48.818;9.422;2024-03-23T07:44:04;1.20;;;1.20;;
17510;SDS011;8873;48.818;9.422;2024-03-23T07:46:32;1.20;;;1.20;;
17510;SDS011;8873;48.818;9.422;2024-03-23T07:48:58;1.02;;;1.02;;
17510;SDS011;8873;48.818;9.422;2024-03-23T07:51:25;1.08;;;1.08;;
17510;SDS011;8873;48.818;9.422;2024-03-23T07:53:51;1.30;;;1.30;;
17510;SDS011;8873;48.818;9.422;2024-03-23T07:56:19;1.10;;;1.10;;
17510;SDS011;8873;48.818;9.422;2024-03-23T07:58:47;1.17;;;1.17;;
17510;SDS011;8873;48.818;9.422;2024-03-23T08:01:15;1.15;;;1.15;;
17510;SDS011;8873;48.818;9.422;2024-03-23T08:03:42;1.10;;;1.10;;
17510;SDS011;8873;48.818;9.422;2024-03-23T08:06:12;1.08;;;1.08;;
17510;SDS011;8873;48.818;9.422;2024-03-23T08:08:39;1.27;;;1.10;;
17510;SDS011;8873;48.818;9.422;2024-03-23T08:11:07;1.00;;;1.00;;
17510;SDS011;8873;48.818;9.422;2024-03-23T08:14:04;1.10;;;1.10;;
17510;SDS011;8873;48.818;9.422;2024-03-23T08:16:35;1.52;;;1.17;;
17510;SDS011;8873;48.818;9.422;2024-03-23T08:19:03;1.00;;;1.00;;
17510;SDS011;8873;48.818;9.422;2024-03-23T08:21:34;1.13;;;1.13;;
17510;SDS011;8873;48.818;9.422;2024-03-23T08:24:07;1.17;;;1.17;;
17510;SDS011;8873;48.818;9.422;2024-03-23T08:26:33;1.10;;;1.10;;
17510;SDS011;8873;48.818;9.422;2024-03-23T08:29:04;1.23;;;1.20;;
17510;SDS011;8873;48.818;9.422;2024-03-23T08:31:59;1.40;;;1.30;;
17510;SDS011;8873;48.818;9.422;2024-03-23T08:34:56;1.42;;;1.33;;
17510;SDS011;8873;48.818;9.422;2024-03-23T08:37:23;1.40;;;1.30;;
17510;SDS011;8873;48.818;9.422;2024-03-23T08:39:50;1.30;;;1.30;;
17510;SDS011;8873;48.818;9.422;2024-03-23T08:42:46;1.30;;;1.30;;
17510;SDS011;8873;48.818;9.422;2024-03-23T08:45:14;1.30;;;1.30;;
17510;SDS011;8873;48.818;9.422;2024-03-23T08:47:40;1.08;;;1.08;;
17510;SDS011;8873;48.818;9.422;2024-03-23T08:50:06;1.00;;;1.00;;
17510;SDS011;8873;48.818;9.422;2024-03-23T08:52:33;1.00;;;1.00;;
17510;SDS011;8873;48.818;9.422;2024-03-23T08:54:59;2.17;;;1.52;;
17510;SDS011;8873;48.818;9.422;2024-03-23T08:57:26;0.95;;;0.95;;
17510;SDS011;8873;48.818;9.422;2024-03-23T08:59:52;1.30;;;1.20;;
17510;SDS011;8873;48.818;9.422;2024-03-23T09:02:20;1.30;;;1.25;;
17510;SDS011;8873;48.818;9.422;2024-03-23T09:04:48;1.80;;;1.70;;
17510;SDS011;8873;48.818;9.422;2024-03-23T09:07:15;1.55;;;1.42;;
17510;SDS011;8873;48.818;9.422;2024-03-23T09:09:41;2.38;;;1.65;;
17510;SDS011;8873;48.818;9.422;2024-03-23T09:12:36;1.88;;;1.75;;
17510;SDS011;8873;48.818;9.422;2024-03-23T09:15:30;1.95;;;1.60;;
17510;SDS011;8873;48.818;9.422;2024-03-23T09:18:00;2.85;;;1.65;;
17510;SDS011;8873;48.818;9.422;2024-03-23T09:20:25;1.98;;;1.77;;
17510;SDS011;8873;48.818;9.422;2024-03-23T09:22:52;2.25;;;2.03;;
17510;SDS011;8873;48.818;9.422;2024-03-23T09:25:18;2.47;;;1.65;;
17510;SDS011;8873;48.818;9.422;2024-03-23T09:27:45;5.03;;;1.90;;
17510;SDS011;8873;48.818;9.422;2024-03-23T09:30:12;5.78;;;1.90;;
17510;SDS011;8873;48.818;9.422;2024-03-23T09:32:38;1.52;;;1.40;;
17510;SDS011;8873;48.818;9.422;2024-03-23T09:35:06;2.63;;;1.98;;
17510;SDS011;8873;48.818;9.422;2024-03-23T09:37:32;1.70;;;1.60;;
17510;SDS011;8873;48.818;9.422;2024-03-23T09:39:58;1.70;;;1.58;;
17510;SDS011;8873;48.818;9.422;2024-03-23T09:42:25;3.25;;;2.25;;
17510;SDS011;8873;48.818;9.422;2024-03-23T09:44:51;3.47;;;2.05;;
17510;SDS011;8873;48.818;9.422;2024-03-23T09:47:18;4.45;;;2.50;;
17510;SDS011;8873;48.818;9.422;2024-03-23T09:49:43;4.55;;;2.10;;
17510;SDS011;8873;48.818;9.422;2024-03-23T09:52:11;5.38;;;2.20;;
17510;SDS011;8873;48.818;9.422;2024-03-23T09:54:37;4.78;;;2.20;;
17510;SDS011;8873;48.818;9.422;2024-03-23T09:57:04;3.75;;;2.10;;
17510;SDS011;8873;48.818;9.422;2024-03-23T09:59:31;2.33;;;2.10;;
17510;SDS011;8873;48.818;9.422;2024-03-23T10:01:59;4.65;;;2.30;;
17510;SDS011;8873;48.818;9.422;2024-03-23T10:04:35;9.52;;;2.10;;
17510;SDS011;8873;48.818;9.422;2024-03-23T10:07:11;2.97;;;2.35;;
17510;SDS011;8873;48.818;9.422;2024-03-23T10:09:38;5.63;;;2.25;;
17510;SDS011;8873;48.818;9.422;2024-03-23T10:12:08;5.28;;;2.45;;
17510;SDS011;8873;48.818;9.422;2024-03-23T10:14:34;4.18;;;2.25;;
17510;SDS011;8873;48.818;9.422;2024-03-23T10:17:12;2.75;;;2.17;;
17510;SDS011;8873;48.818;9.422;2024-03-23T10:19:39;2.25;;;2.13;;
17510;SDS011;8873;48.818;9.422;2024-03-23T10:22:07;1.88;;;1.77;;
17510;SDS011;8873;48.818;9.422;2024-03-23T10:24:34;3.53;;;2.17;;
17510;SDS011;8873;48.818;9.422;2024-03-23T10:27:03;7.47;;;2.40;;
17510;SDS011;8873;48.818;9.422;2024-03-23T10:29:29;5.93;;;2.42;;
17510;SDS011;8873;48.818;9.422;2024-03-23T10:32:07;2.60;;;2.35;;
17510;SDS011;8873;48.818;9.422;2024-03-23T10:34:33;2.83;;;2.08;;
17510;SDS011;8873;48.818;9.422;2024-03-23T10:37:00;5.55;;;2.97;;
17510;SDS011;8873;48.818;9.422;2024-03-23T10:39:29;3.78;;;2.58;;
17510;SDS011;8873;48.818;9.422;2024-03-23T10:41:58;2.92;;;2.47;;
17510;SDS011;8873;48.818;9.422;2024-03-23T10:44:25;5.63;;;2.50;;
17510;SDS011;8873;48.818;9.422;2024-03-23T10:46:54;3.22;;;2.17;;
17510;SDS011;8873;48.818;9.422;2024-03-23T10:49:24;2.67;;;2.25;;
17510;SDS011;8873;48.818;9.422;2024-03-23T10:51:53;5.60;;;2.90;;
17510;SDS011;8873;48.818;9.422;2024-03-23T10:54:20;6.40;;;2.85;;
17510;SDS011;8873;48.818;9.422;2024-03-23T10:56:47;5.07;;;2.20;;
17510;SDS011;8873;48.818;9.422;2024-03-23T10:59:17;3.88;;;2.45;;
17510;SDS011;8873;48.818;9.422;2024-03-23T11:01:53;4.55;;;2.33;;
17510;SDS011;8873;48.818;9.422;2024-03-23T11:04:28;3.70;;;2.17;;
17510;SDS011;8873;48.818;9.422;2024-03-23T11:06:55;3.10;;;1.98;;
17510;SDS011;8873;48.818;9.422;2024-03-23T11:09:40;3.80;;;2.42;;
17510;SDS011;8873;48.818;9.422;2024-03-23T11:12:26;3.13;;;2.55;;
17510;SDS011;8873;48.818;9.422;2024-03-23T11:14:53;4.50;;;2.90;;
17510;SDS011;8873;48.818;9.422;2024-03-23T11:17:20;10.95;;;3.03;;
17510;SDS011;8873;48.818;9.422;2024-03-23T11:19:52;9.57;;;2.80;;
17510;SDS011;8873;48.818;9.422;2024-03-23T11:25:00;6.75;;;3.17;;
17510;SDS011;8873;48.818;9.422;2024-03-23T11:27:26;6.55;;;3.70;;
17510;SDS011;8873;48.818;9.422;2024-03-23T11:29:54;5.85;;;2.92;;
17510;SDS011;8873;48.818;9.422;2024-03-23T11:32:20;5.95;;;3.90;;
17510;SDS011;8873;48.818;9.422;2024-03-23T11:34:46;6.40;;;3.15;;
17510;SDS011;8873;48.818;9.422;2024-03-23T11:37:20;12.65;;;4.25;;
17510;SDS011;8873;48.818;9.422;2024-03-23T11:39:45;7.70;;;3.58;;
17510;SDS011;8873;48.818;9.422;2024-03-23T11:42:14;3.78;;;3.03;;
17510;SDS011;8873;48.818;9.422;2024-03-23T11:44:40;9.05;;;3.20;;
17510;SDS011;8873;48.818;9.422;2024-03-23T11:47:09;8.18;;;3.05;;
17510;SDS011;8873;48.818;9.422;2024-03-23T11:49:36;4.10;;;3.03;;
17510;SDS011;8873;48.818;9.422;2024-03-23T11:52:06;9.23;;;3.05;;
17510;SDS011;8873;48.818;9.422;2024-03-23T11:54:32;3.22;;;2.90;;
17510;SDS011;8873;48.818;9.422;2024-03-23T11:56:59;4.32;;;2.83;;
17510;SDS011;8873;48.818;9.422;2024-03-23T11:59:35;3.67;;;3.28;;
17510;SDS011;8873;48.818;9.422;2024-03-23T12:02:05;12.90;;;3.30;;
17510;SDS011;8873;48.818;9.422;2024-03-23T12:04:33;5.40;;;3.30;;
17510;SDS011;8873;48.818;9.422;2024-03-23T12:07:13;8.32;;;3.05;;
17510;SDS011;8873;48.818;9.422;2024-03-23T12:09:39;3.63;;;3.08;;
17510;SDS011;8873;48.818;9.422;2024-03-23T12:12:08;5.07;;;3.60;;
17510;SDS011;8873;48.818;9.422;2024-03-23T12:14:34;7.20;;;3.35;;
17510;SDS011;8873;48.818;9.422;2024-03-23T12:17:07;5.30;;;3.13;;
17510;SDS011;8873;48.818;9.422;2024-03-23T12:19:35;6.28;;;2.80;;
17510;SDS011;8873;48.818;9.422;2024-03-23T12:22:03;4.55;;;2.60;;
17510;SDS011;8873;48.818;9.422;2024-03-23T12:24:29;2.00;;;1.90;;
17510;SDS011;8873;48.818;9.422;2024-03-23T12:27:01;2.47;;;2.22;;
17510;SDS011;8873;48.818;9.422;2024-03-23T12:29:28;2.70;;;2.50;;
17510;SDS011;8873;48.818;9.422;2024-03-23T12:31:55;2.35;;;2.05;;
17510;SDS011;8873;48.818;9.422;2024-03-23T12:34:21;6.32;;;2.00;;
17510;SDS011;8873;48.818;9.422;2024-03-23T12:36:50;6.10;;;2.47;;
17510;SDS011;8873;48.818;9.422;2024-03-23T12:39:15;6.28;;;2.00;;
17510;SDS011;8873;48.818;9.422;2024-03-23T12:41:42;2.95;;;2.45;;
17510;SDS011;8873;48.818;9.422;2024-03-23T12:44:08;3.83;;;1.90;;
17510;SDS011;8873;48.818;9.422;2024-03-23T12:46:40;4.80;;;1.80;;
17510;SDS011;8873;48.818;9.422;2024-03-23T12:49:06;3.65;;;1.90;;
17510;SDS011;8873;48.818;9.422;2024-03-23T12:51:33;2.17;;;1.80;;
17510;SDS011;8873;48.818;9.422;2024-03-23T12:54:02;5.72;;;3.65;;
17510;SDS011;8873;48.818;9.422;2024-03-23T12:56:30;4.20;;;2.03;;
17510;SDS011;8873;48.818;9.422;2024-03-23T12:58:56;6.03;;;2.22;;
17510;SDS011;8873;48.818;9.422;2024-03-23T13:01:23;7.63;;;2.28;;
17510;SDS011;8873;48.818;9.422;2024-03-23T13:03:49;7.15;;;2.92;;
17510;SDS011;8873;48.818;9.422;2024-03-23T13:06:16;6.55;;;2.13;;
17510;SDS011;8873;48.818;9.422;2024-03-23T13:08:43;3.08;;;1.90;;
17510;SDS011;8873;48.818;9.422;2024-03-23T13:11:13;7.50;;;1.92;;
17510;SDS011;8873;48.818;9.422;2024-03-23T13:13:39;6.63;;;1.90;;
17510;SDS011;8873;48.818;9.422;2024-03-23T13:16:16;5.52;;;2.08;;
17510;SDS011;8873;48.818;9.422;2024-03-23T13:18:41;7.88;;;2.10;;
17510;SDS011;8873;48.818;9.422;2024-03-23T13:21:08;12.95;;;2.45;;
17510;SDS011;8873;48.818;9.422;2024-03-23T13:23:34;3.30;;;1.75;;
17510;SDS011;8873;48.818;9.422;2024-03-23T13:26:03;6.97;;;1.98;;
17510;SDS011;8873;48.818;9.422;2024-03-23T13:28:30;4.40;;;1.73;;
17510;SDS011;8873;48.818;9.422;2024-03-23T13:30:57;3.15;;;1.77;;
17510;SDS011;8873;48.818;9.422;2024-03-23T13:33:23;4.95;;;1.88;;
17510;SDS011;8873;48.818;9.422;2024-03-23T13:35:50;4.22;;;1.83;;
17510;SDS011;8873;48.818;9.422;2024-03-23T13:38:16;6.75;;;2.17;;
17510;SDS011;8873;48.818;9.422;2024-03-23T13:40:50;3.47;;;1.63;;
17510;SDS011;8873;48.818;9.422;2024-03-23T13:43:16;3.60;;;2.05;;
17510;SDS011;8873;48.818;9.422;2024-03-23T13:45:44;5.18;;;1.98;;
17510;SDS011;8873;48.818;9.422;2024-03-23T13:48:09;2.63;;;1.92;;
17510;SDS011;8873;48.818;9.422;2024-03-23T13:50:36;3.92;;;1.40;;
17510;SDS011;8873;48.818;9.422;2024-03-23T13:53:03;3.47;;;2.00;;
17510;SDS011;8873;48.818;9.422;2024-03-23T13:55:31;3.75;;;1.88;;
17510;SDS011;8873;48.818;9.422;2024-03-23T13:57:57;4.45;;;2.30;;
17510;SDS011;8873;48.818;9.422;2024-03-23T14:00:24;8.20;;;2.10;;
17510;SDS011;8873;48.818;9.422;2024-03-23T14:02:52;6.90;;;2.35;;
17510;SDS011;8873;48.818;9.422;2024-03-23T14:05:18;3.58;;;1.88;;
17510;SDS011;8873;48.818;9.422;2024-03-23T14:07:44;2.55;;;2.03;;
17510;SDS011;8873;48.818;9.422;2024-03-23T14:10:11;2.65;;;1.60;;
17510;SDS011;8873;48.818;9.422;2024-03-23T14:12:37;4.20;;;1.75;;
17510;SDS011;8873;48.818;9.422;2024-03-23T14:15:05;2.45;;;1.40;;
17510;SDS011;8873;48.818;9.422;2024-03-23T14:17:31;1.42;;;1.40;;
17510;SDS011;8873;48.818;9.422;2024-03-23T14:19:59;2.10;;;1.30;;
17510;SDS011;8873;48.818;9.422;2024-03-23T14:22:26;1.38;;;1.30;;
17510;SDS011;8873;48.818;9.422;2024-03-23T14:24:53;1.60;;;1.50;;
17510;SDS011;8873;48.818;9.422;2024-03-23T14:27:19;1.38;;;1.20;;
17510;SDS011;8873;48.818;9.422;2024-03-23T14:29:47;2.42;;;1.50;;
17510;SDS011;8873;48.818;9.422;2024-03-23T14:32:12;1.50;;;1.40;;
17510;SDS011;8873;48.818;9.422;2024-03-23T14:34:40;1.58;;;1.50;;
17510;SDS011;8873;48.818;9.422;2024-03-23T14:37:07;2.92;;;1.60;;
17510;SDS011;8873;48.818;9.422;2024-03-23T14:39:34;2.65;;;1.45;;
17510;SDS011;8873;48.818;9.422;2024-03-23T14:42:00;4.15;;;1.50;;
17510;SDS011;8873;48.818;9.422;2024-03-23T14:44:29;1.52;;;1.38;;
17510;SDS011;8873;48.818;9.422;2024-03-23T14:46:57;2.88;;;1.40;;
17510;SDS011;8873;48.818;9.422;2024-03-23T14:49:29;1.65;;;1.23;;
17510;SDS011;8873;48.818;9.422;2024-03-23T14:52:00;4.80;;;1.65;;
17510;SDS011;8873;48.818;9.422;2024-03-23T14:54:29;2.17;;;1.75;;
17510;SDS011;8873;48.818;9.422;2024-03-23T14:56:56;1.45;;;1.45;;
17510;SDS011;8873;48.818;9.422;2024-03-23T14:59:28;1.88;;;1.60;;
17510;SDS011;8873;48.818;9.422;2024-03-23T15:02:02;4.30;;;1.70;;
17510;SDS011;8873;48.818;9.422;2024-03-23T15:04:35;1.88;;;1.40;;
17510;SDS011;8873;48.818;9.422;2024-03-23T15:07:01;2.15;;;1.58;;
17510;SDS011;8873;48.818;9.422;2024-03-23T15:09:32;2.42;;;1.50;;
17510;SDS011;8873;48.818;9.422;2024-03-23T15:12:01;1.50;;;1.40;;
17510;SDS011;8873;48.818;9.422;2024-03-23T15:14:28;2.90;;;2.00;;
17510;SDS011;8873;48.818;9.422;2024-03-23T15:16:55;4.35;;;1.60;;
17510;SDS011;8873;48.818;9.422;2024-03-23T15:19:22;2.10;;;1.70;;
17510;SDS011;8873;48.818;9.422;2024-03-23T15:21:49;1.60;;;1.50;;
17510;SDS011;8873;48.818;9.422;2024-03-23T15:32:57;4.30;;;1.40;;
17510;SDS011;8873;48.818;9.422;2024-03-23T15:35:24;4.30;;;1.27;;
17510;SDS011;8873;48.818;9.422;2024-03-23T15:37:50;1.52;;;1.50;;
17510;SDS011;8873;48.818;9.422;2024-03-23T15:40:18;5.90;;;1.48;;
17510;SDS011;8873;48.818;9.422;2024-03-23T15:42:44;1.42;;;1.35;;
17510;SDS011;8873;48.818;9.422;2024-03-23T15:45:11;1.30;;;1.20;;
17510;SDS011;8873;48.818;9.422;2024-03-23T15:47:37;2.80;;;1.08;;
17510;SDS011;8873;48.818;9.422;2024-03-23T15:50:06;1.27;;;1.23;;
17510;SDS011;8873;48.818;9.422;2024-03-23T15:52:34;1.17;;;1.17;;
17510;SDS011;8873;48.818;9.422;2024-03-23T15:55:01;3.25;;;1.30;;
17510;SDS011;8873;48.818;9.422;2024-03-23T15:57:29;1.10;;;1.10;;
17510;SDS011;8873;48.818;9.422;2024-03-23T15:59:56;1.48;;;1.35;;
17510;SDS011;8873;48.818;9.422;2024-03-23T16:02:21;1.00;;;1.00;;
17510;SDS011;8873;48.818;9.422;2024-03-23T16:04:49;1.63;;;1.40;;
17510;SDS011;8873;48.818;9.422;2024-03-23T16:07:16;4.35;;;1.88;;
17510;SDS011;8873;48.818;9.422;2024-03-23T16:09:43;1.38;;;1.38;;
17510;SDS011;8873;48.818;9.422;2024-03-23T16:12:08;1.58;;;1.25;;
17510;SDS011;8873;48.818;9.422;2024-03-23T16:14:35;1.85;;;1.20;;
17510;SDS011;8873;48.818;9.422;2024-03-23T16:17:01;1.33;;;1.33;;
17510;SDS011;8873;48.818;9.422;2024-03-23T16:19:28;1.20;;;1.20;;
17510;SDS011;8873;48.818;9.422;2024-03-23T16:21:54;1.63;;;1.45;;
17510;SDS011;8873;48.818;9.422;2024-03-23T16:24:22;1.55;;;1.20;;
17510;SDS011;8873;48.818;9.422;2024-03-23T16:26:48;1.25;;;1.20;;
17510;SDS011;8873;48.818;9.422;2024-03-23T16:29:14;1.17;;;1.17;;
17510;SDS011;8873;48.818;9.422;2024-03-23T16:31:40;1.85;;;1.60;;
17510;SDS011;8873;48.818;9.422;2024-03-23T16:34:10;1.90;;;1.80;;
17510;SDS011;8873;48.818;9.422;2024-03-23T16:36:35;1.50;;;1.40;;
17510;SDS011;8873;48.818;9.422;2024-03-23T16:39:02;4.15;;;1.67;;
17510;SDS011;8873;48.818;9.422;2024-03-23T16:41:29;1.60;;;1.50;;
17510;SDS011;8873;48.818;9.422;2024-03-23T16:43:56;2.28;;;2.10;;
17510;SDS011;8873;48.818;9.422;2024-03-23T16:46:26;1.50;;;1.40;;
17510;SDS011;8873;48.818;9.422;2024-03-23T16:48:53;2.20;;;1.60;;
17510;SDS011;8873;48.818;9.422;2024-03-23T16:51:19;2.05;;;1.88;;
17510;SDS011;8873;48.818;9.422;2024-03-23T16:53:46;1.25;;;1.17;;
17510;SDS011;8873;48.818;9.422;2024-03-23T16:56:11;1.85;;;1.75;;
17510;SDS011;8873;48.818;9.422;2024-03-23T16:58:40;4.82;;;2.17;;
17510;SDS011;8873;48.818;9.422;2024-03-23T17:01:06;5.30;;;2.88;;
17510;SDS011;8873;48.818;9.422;2024-03-23T17:03:34;2.65;;;1.45;;
17510;SDS011;8873;48.818;9.422;2024-03-23T17:06:02;2.42;;;1.90;;
17510;SDS011;8873;48.818;9.422;2024-03-23T17:08:29;1.35;;;1.27;;
17510;SDS011;8873;48.818;9.422;2024-03-23T17:10:57;1.60;;;1.50;;
17510;SDS011;8873;48.818;9.422;2024-03-23T17:13:24;1.10;;;1.10;;
17510;SDS011;8873;48.818;9.422;2024-03-23T17:15:52;1.90;;;1.80;;
17510;SDS011;8873;48.818;9.422;2024-03-23T17:18:25;4.88;;;2.20;;
17510;SDS011;8873;48.818;9.422;2024-03-23T17:20:52;3.58;;;1.90;;
17510;SDS011;8873;48.818;9.422;2024-03-23T17:23:54;2.03;;;1.88;;
17510;SDS011;8873;48.818;9.422;2024-03-23T17:26:23;1.60;;;1.50;;
17510;SDS011;8873;48.818;9.422;2024-03-23T17:28:50;1.50;;;1.40;;
17510;SDS011;8873;48.818;9.422;2024-03-23T17:31:18;4.28;;;2.03;;
17510;SDS011;8873;48.818;9.422;2024-03-23T17:33:48;4.95;;;2.13;;
17510;SDS011;8873;48.818;9.422;2024-03-23T17:36:15;3.38;;;1.80;;
17510;SDS011;8873;48.818;9.422;2024-03-23T17:38:46;3.42;;;1.90;;
17510;SDS011;8873;48.818;9.422;2024-03-23T17:41:12;2.17;;;1.77;;
17510;SDS011;8873;48.818;9.422;2024-03-23T17:43:51;2.53;;;1.50;;
17510;SDS011;8873;48.818;9.422;2024-03-23T17:46:21;3.28;;;1.80;;
17510;SDS011;8873;48.818;9.422;2024-03-23T17:48:52;2.90;;;2.25;;
17510;SDS011;8873;48.818;9.422;2024-03-23T17:51:18;2.20;;;2.00;;
17510;SDS011;8873;48.818;9.422;2024-03-23T17:53:46;2.00;;;1.90;;
17510;SDS011;8873;48.818;9.422;2024-03-23T17:56:11;2.92;;;2.50;;
17510;SDS011;8873;48.818;9.422;2024-03-23T17:58:39;3.42;;;2.33;;
17510;SDS011;8873;48.818;9.422;2024-03-23T18:01:05;4.07;;;2.05;;
17510;SDS011;8873;48.818;9.422;2024-03-23T18:03:36;3.47;;;2.03;;
17510;SDS011;8873;48.818;9.422;2024-03-23T18:06:02;1.40;;;1.33;;
17510;SDS011;8873;48.818;9.422;2024-03-23T18:08:29;1.20;;;1.20;;
17510;SDS011;8873;48.818;9.422;2024-03-23T18:10:54;1.30;;;1.30;;
17510;SDS011;8873;48.818;9.422;2024-03-23T18:13:22;3.42;;;1.45;;
17510;SDS011;8873;48.818;9.422;2024-03-23T18:15:55;1.40;;;1.40;;
17510;SDS011;8873;48.818;9.422;2024-03-23T18:18:25;2.08;;;1.27;;
17510;SDS011;8873;48.818;9.422;2024-03-23T18:20:53;1.60;;;1.60;;
17510;SDS011;8873;48.818;9.422;2024-03-23T18:23:19;2.10;;;1.67;;
17510;SDS011;8873;48.818;9.422;2024-03-23T18:25:50;1.88;;;1.77;;
17510;SDS011;8873;48.818;9.422;2024-03-23T18:28:16;2.53;;;2.30;;
17510;SDS011;8873;48.818;9.422;2024-03-23T18:30:42;1.52;;;1.52;;
17510;SDS011;8873;48.818;9.422;2024-03-23T18:33:09;3.40;;;2.00;;
17510;SDS011;8873;48.818;9.422;2024-03-23T18:35:34;2.38;;;1.50;;
17510;SDS011;8873;48.818;9.422;2024-03-23T18:38:03;1.88;;;1.77;;
17510;SDS011;8873;48.818;9.422;2024-03-23T18:40:28;1.58;;;1.58;;
17510;SDS011;8873;48.818;9.422;2024-03-23T18:42:55;9.15;;;4.35;;
17510;SDS011;8873;48.818;9.422;2024-03-23T18:45:21;5.85;;;3.50;;
17510;SDS011;8873;48.818;9.422;2024-03-23T18:47:50;5.07;;;2.65;;
17510;SDS011;8873;48.818;9.422;2024-03-23T18:50:18;11.10;;;7.00;;
17510;SDS011;8873;48.818;9.422;2024-03-23T18:52:46;4.50;;;3.20;;
17510;SDS011;8873;48.818;9.422;2024-03-23T18:55:13;8.27;;;5.32;;
17510;SDS011;8873;48.818;9.422;2024-03-23T18:57:40;9.02;;;5.90;;
17510;SDS011;8873;48.818;9.422;2024-03-23T19:00:06;4.25;;;3.85;;
17510;SDS011;8873;48.818;9.422;2024-03-23T19:02:35;12.40;;;6.05;;
17510;SDS011;8873;48.818;9.422;2024-03-23T19:05:00;4.18;;;3.28;;
17510;SDS011;8873;48.818;9.422;2024-03-23T19:07:27;8.38;;;5.32;;
17510;SDS011;8873;48.818;9.422;2024-03-23T19:09:53;5.45;;;3.30;;
17510;SDS011;8873;48.818;9.422;2024-03-23T19:12:21;11.20;;;6.40;;
17510;SDS011;8873;48.818;9.422;2024-03-23T19:14:47;6.80;;;5.07;;
17510;SDS011;8873;48.818;9.422;2024-03-23T19:17:15;10.20;;;5.20;;
17510;SDS011;8873;48.818;9.422;2024-03-23T19:19:41;10.48;;;5.85;;